createdAt,value
2019-04-26T00:00:10.398Z,86.70
2019-04-26T00:02:41.251Z,86.80
2019-04-26T00:05:10.476Z,87.30
2019-04-26T00:07:43.724Z,87.90
2019-04-26T00:10:14.591Z,87.90
2019-04-26T00:12:44.858Z,87.80
2019-04-26T00:15:16.328Z,88.00
2019-04-26T00:17:46.804Z,88.40
2019-04-26T00:20:15.499Z,88.30
2019-04-26T00:22:44.257Z,88.30
2019-04-26T00:25:13.065Z,88.30
2019-04-26T00:27:41.693Z,88.40
2019-04-26T00:30:11.772Z,88.60
2019-04-26T00:32:40.782Z,89.10
2019-04-26T00:35:09.509Z,89.80
2019-04-26T00:37:38.269Z,90.20
2019-04-26T00:40:07.135Z,90.30
2019-04-26T00:42:36.430Z,90.10
2019-04-26T00:45:05.590Z,90.20
2019-04-26T00:47:35.512Z,90.40
2019-04-26T00:50:05.762Z,90.50
2019-04-26T00:52:34.779Z,90.40
2019-04-26T00:55:03.574Z,90.50
2019-04-26T00:57:33.306Z,90.70
2019-04-26T01:00:03.200Z,90.60
2019-04-26T01:02:36.108Z,90.70
2019-04-26T01:05:05.472Z,90.80
2019-04-26T01:07:34.166Z,90.80
2019-04-26T01:10:02.837Z,90.90
2019-04-26T01:12:31.549Z,90.90
2019-04-26T01:15:01.764Z,91.00
2019-04-26T01:17:30.392Z,91.00
2019-04-26T01:19:59.713Z,91.20
2019-04-26T01:22:31.381Z,91.00
2019-04-26T01:25:05.421Z,91.40
2019-04-26T01:27:37.396Z,91.60
2019-04-26T01:30:11.660Z,92.00
2019-04-26T01:32:42.818Z,92.30
2019-04-26T01:35:11.974Z,92.40
2019-04-26T01:37:43.336Z,92.40
2019-04-26T01:40:13.692Z,92.70
2019-04-26T01:42:49.530Z,92.80
2019-04-26T01:45:32.124Z,92.50
2019-04-26T01:48:01.574Z,93.30
2019-04-26T01:50:32.131Z,93.60
2019-04-26T01:53:01.781Z,93.30
2019-04-26T01:55:32.504Z,93.50
2019-04-26T01:58:04.202Z,93.00
2019-04-26T02:00:37.851Z,92.80
2019-04-26T02:03:08.140Z,92.80
2019-04-26T02:05:36.882Z,93.10
2019-04-26T02:08:05.591Z,93.00
2019-04-26T02:10:35.993Z,93.10
2019-04-26T02:13:04.750Z,92.50
2019-04-26T02:15:33.871Z,92.60
2019-04-26T02:18:03.372Z,92.80
2019-04-26T02:20:49.694Z,93.00
2019-04-26T02:23:23.609Z,93.40
2019-04-26T02:25:53.266Z,93.30
2019-04-26T02:28:21.822Z,93.30
2019-04-26T02:30:50.644Z,92.90
2019-04-26T02:33:19.901Z,92.50
2019-04-26T02:35:49.447Z,92.40
2019-04-26T02:38:18.675Z,92.20
2019-04-26T02:40:48.707Z,92.10
2019-04-26T02:43:20.419Z,92.00
2019-04-26T02:46:08.391Z,91.60
2019-04-26T02:48:56.764Z,91.60
2019-04-26T02:51:29.251Z,91.30
2019-04-26T02:54:01.821Z,91.00
2019-04-26T02:56:34.166Z,91.10
2019-04-26T02:59:12.420Z,90.80
2019-04-26T03:01:41.833Z,90.80
2019-04-26T03:04:10.642Z,90.70
2019-04-26T03:06:42.835Z,90.90
2019-04-26T03:09:14.419Z,91.00
2019-04-26T03:11:46.081Z,91.10
2019-04-26T03:14:19.913Z,91.20
2019-04-26T03:17:01.950Z,91.30
2019-04-26T03:19:44.031Z,91.70
2019-04-26T03:22:18.604Z,91.90
2019-04-26T03:25:22.171Z,92.30
2019-04-26T03:28:05.913Z,92.80
2019-04-26T03:31:07.717Z,92.90
2019-04-26T03:33:49.142Z,92.90
2019-04-26T03:36:23.464Z,93.00
2019-04-26T03:39:14.898Z,93.20
2019-04-26T03:42:12.400Z,93.10
2019-04-26T03:44:58.522Z,93.00
2019-04-26T03:47:35.622Z,92.90
2019-04-26T03:50:09.850Z,93.00
2019-04-26T03:52:47.478Z,93.00
2019-04-26T03:55:43.773Z,93.00
2019-04-26T03:58:25.654Z,93.20
2019-04-26T04:01:06.318Z,93.40
2019-04-26T04:03:43.950Z,93.40
2019-04-26T04:06:17.002Z,93.30
2019-04-26T04:08:51.888Z,93.30
2019-04-26T04:11:30.463Z,93.30
2019-04-26T04:14:13.940Z,93.30
2019-04-26T04:16:56.134Z,93.20
2019-04-26T04:20:24.244Z,93.00
2019-04-26T04:23:00.869Z,93.00
2019-04-26T04:25:32.481Z,92.00
2019-04-26T04:28:06.550Z,92.20
2019-04-26T04:30:45.889Z,92.50
2019-04-26T04:33:36.731Z,92.50
2019-04-26T04:36:08.458Z,92.50
2019-04-26T04:39:10.792Z,92.50
2019-04-26T04:41:50.812Z,92.40
2019-04-26T04:44:25.171Z,92.10
2019-04-26T04:50:08.946Z,91.90
2019-04-26T04:52:47.787Z,91.90
2019-04-26T04:55:28.378Z,91.70
2019-04-26T04:58:02.892Z,91.60
2019-04-26T05:00:54.127Z,91.70
2019-04-26T05:03:42.346Z,91.40
2019-04-26T05:06:34.450Z,91.10
2019-04-26T05:09:11.504Z,90.90
2019-04-26T05:11:47.632Z,90.90
2019-04-26T05:14:22.235Z,90.60
2019-04-26T05:17:13.359Z,90.30
2019-04-26T05:20:00.038Z,90.20
2019-04-26T05:22:47.300Z,90.30
2019-04-26T05:25:51.652Z,90.20
2019-04-26T05:28:27.635Z,90.00
2019-04-26T05:31:34.338Z,90.20
2019-04-26T05:34:37.406Z,90.20
2019-04-26T05:37:24.769Z,90.30
2019-04-26T05:39:57.370Z,90.30
2019-04-26T05:42:48.352Z,90.10
2019-04-26T05:45:45.332Z,90.10
2019-04-26T05:48:55.721Z,90.10
2019-04-26T05:52:00.294Z,90.00
2019-04-26T05:55:09.834Z,90.00
2019-04-26T05:57:46.049Z,89.20
2019-04-26T06:00:43.431Z,89.10
2019-04-26T06:03:41.568Z,88.40
2019-04-26T06:06:34.138Z,88.80
2019-04-26T06:09:32.597Z,88.70
2019-04-26T06:12:23.232Z,89.70
2019-04-26T06:15:11.403Z,88.50
2019-04-26T06:17:57.280Z,87.60
2019-04-26T06:20:44.052Z,87.20
2019-04-26T06:23:15.753Z,86.40
2019-04-26T06:26:01.401Z,85.80
2019-04-26T06:29:01.106Z,86.20
2019-04-26T06:31:35.573Z,86.80
2019-04-26T06:34:12.956Z,85.50
2019-04-26T06:37:02.190Z,85.60
2019-04-26T06:39:39.592Z,86.00
2019-04-26T06:42:17.139Z,85.80
2019-04-26T06:45:02.890Z,85.80
2019-04-26T06:47:48.202Z,85.40
2019-04-26T06:50:21.466Z,84.70
2019-04-26T06:53:03.550Z,84.30
2019-04-26T06:55:39.542Z,84.10
2019-04-26T06:58:36.806Z,82.70
2019-04-26T07:01:10.630Z,82.30
2019-04-26T07:03:59.645Z,81.50
2019-04-26T07:06:35.324Z,80.70
2019-04-26T07:09:11.504Z,80.10
2019-04-26T07:12:02.879Z,79.30
2019-04-26T07:14:55.898Z,78.70
2019-04-26T07:17:42.551Z,78.60
2019-04-26T07:20:21.236Z,78.30
2019-04-26T07:23:39.667Z,77.20
2019-04-26T07:26:26.449Z,77.00
2019-04-26T07:29:07.150Z,77.60
2019-04-26T07:32:11.588Z,77.20
2019-04-26T07:35:14.661Z,75.50
2019-04-26T07:37:48.882Z,74.30
2019-04-26T07:40:42.669Z,73.90
2019-04-26T07:43:41.730Z,73.90
2019-04-26T07:46:46.468Z,74.50
2019-04-26T07:49:39.146Z,73.10
2019-04-26T07:52:26.434Z,71.10
2019-04-26T07:55:19.438Z,70.50
2019-04-26T07:57:56.557Z,69.70
2019-04-26T08:00:44.961Z,69.60
2019-04-26T08:03:39.799Z,67.70
2019-04-26T08:06:14.181Z,67.60
2019-04-26T08:08:51.091Z,66.50
2019-04-26T08:11:22.641Z,68.00
2019-04-26T08:14:12.608Z,65.70
2019-04-26T08:16:54.681Z,65.00
2019-04-26T08:19:26.397Z,65.30
2019-04-26T08:22:11.611Z,63.70
2019-04-26T08:24:30.717Z,64.20
2019-04-26T08:27:08.780Z,64.50
2019-04-26T08:29:35.796Z,64.60
2019-04-26T08:32:08.880Z,65.00
2019-04-26T08:34:41.722Z,63.60
2019-04-26T08:37:13.454Z,65.40
2019-04-26T08:39:45.512Z,63.70
2019-04-26T08:42:34.138Z,62.20
2019-04-26T08:45:10.360Z,63.10
2019-04-26T08:47:39.580Z,63.60
2019-04-26T08:50:27.854Z,62.90
2019-04-26T08:52:59.210Z,62.90
2019-04-26T08:55:29.580Z,63.20
2019-04-26T08:58:01.328Z,61.90
2019-04-26T09:00:35.036Z,62.50
2019-04-26T09:03:11.573Z,62.60
2019-04-26T09:05:45.630Z,61.20
2019-04-26T09:08:16.875Z,60.70
2019-04-26T09:10:48.715Z,61.70
2019-04-26T09:13:17.365Z,61.80
2019-04-26T09:16:07.426Z,61.80
2019-04-26T09:18:43.104Z,60.80
2019-04-26T09:21:08.738Z,59.60
2019-04-26T09:23:56.377Z,59.70
2019-04-26T09:26:29.796Z,59.20
2019-04-26T09:29:00.242Z,59.90
2019-04-26T09:31:33.458Z,59.70
2019-04-26T09:34:06.433Z,59.60
2019-04-26T09:36:34.066Z,60.00
2019-04-26T09:39:04.027Z,58.80
2019-04-26T09:41:34.597Z,59.00
2019-04-26T09:44:04.920Z,59.10
2019-04-26T09:46:38.004Z,59.30
2019-04-26T09:49:08.599Z,58.60
2019-04-26T09:51:39.016Z,57.30
2019-04-26T09:54:07.743Z,58.10
2019-04-26T09:56:36.278Z,58.50
2019-04-26T09:59:05.634Z,57.90
2019-04-26T10:01:34.649Z,58.30
2019-04-26T10:04:03.255Z,58.60
2019-04-26T10:06:32.129Z,58.80
2019-04-26T10:09:01.390Z,57.70
2019-04-26T10:11:33.000Z,57.10
2019-04-26T10:14:09.170Z,57.90
2019-04-26T10:19:31.746Z,58.10
2019-04-26T10:22:00.678Z,57.60
2019-04-26T10:24:29.386Z,57.80
2019-04-26T10:26:59.291Z,58.30
2019-04-26T10:29:28.111Z,58.60
2019-04-26T10:31:56.834Z,59.40
2019-04-26T10:34:26.495Z,60.00
2019-04-26T10:36:56.988Z,58.70
2019-04-26T10:39:28.528Z,58.50
2019-04-26T10:41:55.833Z,58.70
2019-04-26T10:44:24.693Z,59.20
2019-04-26T10:46:55.699Z,59.00
2019-04-26T10:49:46.651Z,59.10
2019-04-26T10:52:24.293Z,58.60
2019-04-26T10:54:57.637Z,58.50
2019-04-26T10:57:30.586Z,56.20
2019-04-26T11:00:00.879Z,54.80
2019-04-26T11:02:29.681Z,53.10
2019-04-26T11:04:59.090Z,52.30
2019-04-26T11:07:27.735Z,51.30
2019-04-26T11:09:56.301Z,48.40
2019-04-26T11:12:25.022Z,47.10
2019-04-26T11:14:56.975Z,46.60
2019-04-26T11:17:24.086Z,45.60
2019-04-26T11:19:52.829Z,44.60
2019-04-26T11:22:29.071Z,44.60
2019-04-26T11:24:53.912Z,44.90
2019-04-26T11:27:23.523Z,44.20
2019-04-26T11:29:53.965Z,43.40
2019-04-26T11:32:23.477Z,44.80
2019-04-26T11:34:54.548Z,44.60
2019-04-26T11:37:22.547Z,43.20
2019-04-26T11:39:51.264Z,42.70
2019-04-26T11:42:20.009Z,42.30
2019-04-26T11:44:48.741Z,41.60
2019-04-26T11:47:17.371Z,40.00
2019-04-26T11:49:46.007Z,39.20
2019-04-26T11:52:14.658Z,38.60
2019-04-26T11:54:44.372Z,40.10
2019-04-26T11:57:13.630Z,39.40
2019-04-26T11:59:42.325Z,40.10
2019-04-26T12:02:16.048Z,39.00
2019-04-26T12:04:59.657Z,39.40
2019-04-26T12:07:32.786Z,39.90
2019-04-26T12:10:05.895Z,39.10
2019-04-26T12:12:33.208Z,37.90
2019-04-26T12:15:03.826Z,38.70
2019-04-26T12:17:35.170Z,38.00
2019-04-26T12:20:04.955Z,38.50
2019-04-26T12:22:33.580Z,38.50
2019-04-26T12:25:03.312Z,38.80
2019-04-26T12:27:32.756Z,39.70
2019-04-26T12:30:01.471Z,39.80
2019-04-26T12:32:30.097Z,38.50
2019-04-26T12:34:58.739Z,37.60
2019-04-26T12:37:27.436Z,37.90
2019-04-26T12:39:56.094Z,37.30
2019-04-26T12:42:24.709Z,36.70
2019-04-26T12:45:03.918Z,35.70
2019-04-26T12:47:50.144Z,34.80
2019-04-26T12:50:18.759Z,34.70
2019-04-26T12:52:47.582Z,35.40
2019-04-26T12:55:18.256Z,35.60
2019-04-26T12:57:46.659Z,35.10
2019-04-26T13:00:17.208Z,35.80
2019-04-26T13:02:45.794Z,37.00
2019-04-26T13:05:18.564Z,37.40
2019-04-26T13:07:46.744Z,37.90
2019-04-26T13:10:35.470Z,38.90
2019-04-26T13:13:17.460Z,38.40
2019-04-26T13:15:51.820Z,39.60
2019-04-26T13:18:20.538Z,39.40
2019-04-26T13:20:49.341Z,37.90
2019-04-26T13:23:18.006Z,37.90
2019-04-26T13:25:46.589Z,37.10
2019-04-26T13:28:20.368Z,36.50
2019-04-26T13:30:46.369Z,35.90
2019-04-26T13:33:15.061Z,35.90
2019-04-26T13:35:46.647Z,35.00
2019-04-26T13:38:14.051Z,34.50
2019-04-26T13:40:42.703Z,34.30
2019-04-26T13:43:12.023Z,34.20
2019-04-26T13:45:50.861Z,34.60
2019-04-26T13:48:30.046Z,36.40
2019-04-26T13:51:18.443Z,38.10
2019-04-26T13:53:47.225Z,38.40
2019-04-26T13:56:15.952Z,38.80
2019-04-26T13:58:45.242Z,40.50
2019-04-26T14:01:14.530Z,41.40
2019-04-26T14:03:44.096Z,41.40
2019-04-26T14:06:12.726Z,41.50
2019-04-26T14:08:41.428Z,41.60
2019-04-26T14:11:10.080Z,41.10
2019-04-26T14:13:38.747Z,42.70
2019-04-26T14:16:07.677Z,42.30
2019-04-26T14:18:39.144Z,40.00
2019-04-26T14:21:07.271Z,39.60
2019-04-26T14:23:37.579Z,39.70
2019-04-26T14:26:14.043Z,37.90
2019-04-26T14:28:42.763Z,36.00
2019-04-26T14:33:49.367Z,35.50
2019-04-26T14:36:18.627Z,35.80
2019-04-26T14:38:47.383Z,36.00
2019-04-26T14:41:21.992Z,35.00
2019-04-26T14:43:46.298Z,34.30
2019-04-26T14:46:16.311Z,34.00
2019-04-26T14:48:54.949Z,35.30
2019-04-26T14:51:16.846Z,35.60
2019-04-26T14:53:45.596Z,34.40
2019-04-26T14:56:14.322Z,35.00
2019-04-26T14:58:44.426Z,33.00
2019-04-26T15:01:32.250Z,34.10
2019-04-26T15:04:19.378Z,33.90
2019-04-26T15:06:51.947Z,33.50
2019-04-26T15:09:20.201Z,34.40
2019-04-26T15:11:56.879Z,34.90
2019-04-26T15:14:21.111Z,34.70
2019-04-26T15:16:50.257Z,33.50
2019-04-26T15:19:19.067Z,34.40
2019-04-26T15:21:47.764Z,35.60
2019-04-26T15:24:16.475Z,35.10
2019-04-26T15:26:45.169Z,35.70
2019-04-26T15:29:14.129Z,33.90
2019-04-26T15:31:42.747Z,35.00
2019-04-26T15:34:12.182Z,37.30
2019-04-26T15:36:43.455Z,38.10
2019-04-26T15:39:21.285Z,40.00
2019-04-26T15:41:59.285Z,40.00
2019-04-26T15:44:47.948Z,41.20
2019-04-26T15:47:32.005Z,42.10
2019-04-26T15:50:03.891Z,41.30
2019-04-26T15:52:34.124Z,41.70
2019-04-26T15:55:05.747Z,43.10
2019-04-26T15:57:34.690Z,43.60
2019-04-26T16:00:04.408Z,44.60
2019-04-26T16:02:33.108Z,44.80
2019-04-26T16:05:02.611Z,44.90
2019-04-26T16:07:33.003Z,45.30
2019-04-26T16:10:01.779Z,46.10
2019-04-26T16:12:32.001Z,46.50
2019-04-26T16:15:02.311Z,46.60
2019-04-26T16:17:30.985Z,46.70
2019-04-26T16:20:01.753Z,46.90
2019-04-26T16:22:32.805Z,46.90
2019-04-26T16:25:04.028Z,47.90
2019-04-26T16:27:34.119Z,48.10
2019-04-26T16:30:19.515Z,48.50
2019-04-26T16:32:58.265Z,49.20
2019-04-26T16:35:28.001Z,49.80
2019-04-26T16:37:53.453Z,50.50
2019-04-26T16:40:25.781Z,50.70
2019-04-26T16:42:56.604Z,51.10
2019-04-26T16:45:22.946Z,51.50
2019-04-26T16:47:53.142Z,51.70
2019-04-26T16:50:28.827Z,52.10
2019-04-26T16:52:52.291Z,52.00
2019-04-26T16:57:54.902Z,52.60
2019-04-26T17:00:31.841Z,53.10
2019-04-26T17:02:52.794Z,53.50
2019-04-26T17:05:43.939Z,53.50
2019-04-26T17:07:53.868Z,53.70
2019-04-26T17:10:24.693Z,53.90
2019-04-26T17:12:55.721Z,54.30
2019-04-26T17:15:24.897Z,54.40
2019-04-26T17:17:53.509Z,55.00
2019-04-26T17:20:22.259Z,55.80
2019-04-26T17:23:03.126Z,55.60
2019-04-26T17:25:35.932Z,56.20
2019-04-26T17:28:05.484Z,57.00
2019-04-26T17:30:40.809Z,57.60
2019-04-26T17:33:04.578Z,57.90
2019-04-26T17:35:36.747Z,58.40
2019-04-26T17:38:05.074Z,59.00
2019-04-26T17:40:36.290Z,59.40
2019-04-26T17:43:05.455Z,59.70
2019-04-26T17:45:36.309Z,59.80
2019-04-26T17:48:11.735Z,59.90
2019-04-26T17:50:42.362Z,60.20
2019-04-26T17:53:16.150Z,60.50
2019-04-26T17:55:45.912Z,60.90
2019-04-26T17:58:17.266Z,61.30
2019-04-26T18:00:46.577Z,62.00
2019-04-26T18:03:15.036Z,62.20
2019-04-26T18:05:56.518Z,62.50
2019-04-26T18:08:33.659Z,62.70
2019-04-26T18:10:51.558Z,63.00
2019-04-26T18:13:20.244Z,63.00
2019-04-26T18:15:50.638Z,63.30
2019-04-26T18:18:20.835Z,63.40
2019-04-26T18:20:56.866Z,63.60
2019-04-26T18:23:25.742Z,63.80
2019-04-26T18:25:56.095Z,64.00
2019-04-26T18:28:24.792Z,64.00
2019-04-26T18:30:53.542Z,64.60
2019-04-26T18:33:25.850Z,65.00
2019-04-26T18:35:55.977Z,65.70
2019-04-26T18:38:22.866Z,66.00
2019-04-26T18:41:00.473Z,66.00
2019-04-26T18:43:24.284Z,66.40
2019-04-26T18:45:58.597Z,67.00
2019-04-26T18:48:25.104Z,67.20
2019-04-26T18:50:55.342Z,67.40
2019-04-26T18:53:39.441Z,67.80
2019-04-26T18:56:07.201Z,68.20
2019-04-26T18:58:37.996Z,68.10
2019-04-26T19:01:07.009Z,68.30
2019-04-26T19:03:36.409Z,68.60
2019-04-26T19:06:05.763Z,68.40
2019-04-26T19:08:45.487Z,68.60
2019-04-26T19:11:07.560Z,68.70
2019-04-26T19:13:37.786Z,68.80
2019-04-26T19:16:10.595Z,69.00
2019-04-26T19:18:57.609Z,69.20
2019-04-26T19:21:27.833Z,69.20
2019-04-26T19:24:05.799Z,69.40
2019-04-26T19:26:33.133Z,69.50
2019-04-26T19:28:58.414Z,70.00
2019-04-26T19:31:27.535Z,70.20
2019-04-26T19:33:56.219Z,70.40
2019-04-26T19:36:27.845Z,70.30
2019-04-26T19:38:55.008Z,70.70
2019-04-26T19:41:25.175Z,71.20
2019-04-26T19:43:56.845Z,71.60
2019-04-26T19:46:31.556Z,72.10
2019-04-26T19:49:14.503Z,72.70
2019-04-26T19:51:52.190Z,72.20
2019-04-26T19:54:27.729Z,72.30
2019-04-26T19:56:56.665Z,72.40
2019-04-26T19:59:27.584Z,72.50
2019-04-26T20:01:57.976Z,72.70
2019-04-26T20:04:30.687Z,72.90
2019-04-26T20:06:56.877Z,73.10
2019-04-26T20:09:26.508Z,73.10
2019-04-26T20:11:57.939Z,73.40
2019-04-26T20:14:39.516Z,73.40
2019-04-26T20:16:56.061Z,73.70
2019-04-26T20:19:34.409Z,73.70
2019-04-26T20:21:55.059Z,73.70
2019-04-26T20:24:23.638Z,74.30
2019-04-26T20:26:52.369Z,74.00
2019-04-26T20:29:21.484Z,74.00
2019-04-26T20:32:02.158Z,73.80
2019-04-26T20:34:32.101Z,74.20
2019-04-26T20:37:01.465Z,74.50
2019-04-26T20:39:31.682Z,75.00
2019-04-26T20:42:03.770Z,75.60
2019-04-26T20:44:47.553Z,75.70
2019-04-26T20:47:03.226Z,75.70
2019-04-26T20:49:33.686Z,75.90
2019-04-26T20:52:02.302Z,75.50
2019-04-26T20:54:34.880Z,75.40
2019-04-26T20:57:03.510Z,74.60
2019-04-26T20:59:32.145Z,73.90
2019-04-26T21:02:07.438Z,74.00
2019-04-26T21:04:37.978Z,74.40
2019-04-26T21:07:06.826Z,74.60
2019-04-26T21:09:36.432Z,75.10
2019-04-26T21:12:07.462Z,75.30
2019-04-26T21:14:37.346Z,75.60
2019-04-26T21:17:05.514Z,76.00
2019-04-26T21:19:34.179Z,75.70
2019-04-26T21:22:02.998Z,75.80
2019-04-26T21:24:36.823Z,76.00
2019-04-26T21:27:25.882Z,76.20
2019-04-26T21:30:03.154Z,76.50
2019-04-26T21:32:41.687Z,76.70
2019-04-26T21:35:13.547Z,76.80
2019-04-26T21:37:53.945Z,77.00
2019-04-26T21:40:30.805Z,76.90
2019-04-26T21:43:00.617Z,76.90
2019-04-26T21:45:31.050Z,76.90
2019-04-26T21:48:02.646Z,77.50
2019-04-26T21:50:35.725Z,78.30
2019-04-26T21:53:03.445Z,78.60
2019-04-26T21:55:35.295Z,78.50
2019-04-26T21:58:03.007Z,78.70
2019-04-26T22:00:33.417Z,79.40
2019-04-26T22:03:03.857Z,80.10
2019-04-26T22:05:35.338Z,80.20
2019-04-26T22:08:04.140Z,80.70
2019-04-26T22:10:34.500Z,80.90
2019-04-26T22:13:05.652Z,81.30
2019-04-26T22:15:54.563Z,81.50
2019-04-26T22:18:32.871Z,80.90
2019-04-26T22:21:03.122Z,81.30
2019-04-26T22:23:43.637Z,82.40
2019-04-26T22:26:13.654Z,82.80
2019-04-26T22:28:43.369Z,83.50
2019-04-26T22:31:13.369Z,83.80
2019-04-26T22:33:42.875Z,84.10
2019-04-26T22:36:13.169Z,84.90
2019-04-26T22:38:42.856Z,85.30
2019-04-26T22:41:19.045Z,85.30
2019-04-26T22:43:49.585Z,85.60
2019-04-26T22:46:44.345Z,85.80
2019-04-26T22:49:05.574Z,86.60
2019-04-26T22:51:33.587Z,87.20
2019-04-26T22:54:07.233Z,87.50
2019-04-26T22:56:37.016Z,87.40
2019-04-26T22:59:08.004Z,87.10
2019-04-26T23:01:39.228Z,87.00
2019-04-26T23:04:07.396Z,87.10
2019-04-26T23:06:36.322Z,86.90
2019-04-26T23:09:07.448Z,87.30
2019-04-26T23:11:39.527Z,87.60
2019-04-26T23:14:17.834Z,87.50
2019-04-26T23:17:04.198Z,88.20
2019-04-26T23:19:28.261Z,88.70
2019-04-26T23:21:59.626Z,89.60
2019-04-26T23:24:28.282Z,89.30
2019-04-26T23:26:56.907Z,90.00
2019-04-26T23:29:25.633Z,90.00
2019-04-26T23:31:55.563Z,90.10
2019-04-26T23:34:25.287Z,89.90
2019-04-26T23:36:54.115Z,89.70
2019-04-26T23:39:24.647Z,89.80
2019-04-26T23:41:53.978Z,90.00
2019-04-26T23:44:23.276Z,90.00
2019-04-26T23:46:54.946Z,90.10
2019-04-26T23:49:25.287Z,90.10
2019-04-26T23:51:56.712Z,90.10
2019-04-26T23:54:28.080Z,90.20
2019-04-26T23:56:57.946Z,90.20
2019-04-26T23:59:25.851Z,90.30
